EST,Max TemperatureF,Mean TemperatureF,Min TemperatureF,Max Dew PointF,MeanDew PointF,Min DewpointF,Max Humidity, Mean Humidity, Min Humidity, Max Sea Level PressureIn, Mean Sea Level PressureIn, Min Sea Level PressureIn, Max VisibilityMiles, Mean VisibilityMiles, Min VisibilityMiles, Max Wind SpeedMPH, Mean Wind SpeedMPH, Max Gust SpeedMPH,PrecipitationIn, CloudCover, Events, WindDirDegrees
2013-1-1,33,25,17,26,15,7,75,65,55,30.07,30.01,29.89,10,8,0,18,9,23,T,6,Snow,301
2013-1-2,27,22,17,17,13,10,74,68,62,30.22,30.11,30.02,10,10,9,18,11,25,T,7,Snow,268
2013-1-3,31,24,17,27,20,12,92,83,73,30.19,30.06,29.96,10,5,1,25,12,36,0.04,8,Snow,217
2013-1-4,33,30,27,26,23,19,78,72,66,30.08,29.99,29.90,10,9,5,41,25,55,0.00,7,Snow,248
2013-1-5,34,32,29,26,24,21,85,77,69,30.31,30.19,30.06,10,10,7,24,12,31,0.00,7,,231
2013-1-6,36,34,32,32,30,24,96,81,66,30.12,29.97,29.88,9,5,2,20,14,26,0.05,8,Rain-Snow,229
2013-1-7,34,30,25,28,22,19,89,78,66,30.41,30.29,30.11,10,10,9,21,11,26,T,6,Snow,251
2013-1-8,36,32,28,28,24,20,85,74,63,30.32,30.28,30.18,10,9,6,18,10,24,0.00,4,,205
2013-1-9,44,36,28,34,29,22,79,67,55,30.39,30.16,30.00,10,10,10,35,16,51,T,4,Rain,217
2013-1-10,41,37,32,27,26,25,75,65,54,30.61,30.51,30.39,10,10,10,14,6,17,0.00,6,,238
2013-1-11,50,42,34,45,36,23,86,64,41,30.35,30.03,29.89,10,10,6,24,11,30,0.09,8,Rain,165
2013-1-12,59,52,45,49,47,44,93,80,67,30.01,29.97,29.94,10,10,10,23,11,30,0.00,6,,196
2013-1-13,65,56,46,55,48,45,100,93,86,29.93,29.83,29.75,10,8,2,28,12,38,0.38,8,Rain,215
2013-1-14,46,37,27,45,28,17,93,78,63,30.42,30.17,29.76,10,9,0,25,12,30,0.04,8,Fog-Rain,264
2013-1-15,31,29,26,21,19,17,81,72,63,30.43,30.34,30.18,10,10,10,12,5,15,0.00,7,,251
2013-1-16,37,33,28,28,24,20,75,67,59,30.13,29.91,29.77,10,10,8,29,12,39,T,7,Snow,225
2013-1-17,35,25,15,28,18,10,84,76,68,30.19,30.08,29.84,10,6,0,30,12,37,0.03,8,Fog-Snow,9
2013-1-18,33,24,14,16,11,6,88,69,50,30.45,30.29,30.03,10,8,2,25,12,31,0.01,6,Snow,249
2013-1-19,48,40,32,29,24,17,64,53,42,30.02,29.87,29.59,10,10,10,30,19,41,0.00,7,,220
2013-1-20,48,33,18,33,16,8,73,58,42,30.11,29.87,29.48,10,8,2,33,22,61,T,7,Snow,261
2013-1-21,20,16,11,16,9,-3,84,67,49,30.09,29.95,29.85,10,6,0,22,9,30,0.04,7,Fog-Snow,264
2013-1-22,11,8,5,-3,-5,-7,66,58,50,30.22,30.10,29.94,10,10,7,24,16,30,T,4,Snow,263
2013-1-23,15,10,5,7,0,-5,76,58,40,30.25,30.17,30.10,10,8,0,15,8,20,0.01,6,Snow,267
2013-1-24,16,10,3,10,5,-2,92,75,58,30.55,30.35,30.12,10,5,0,18,6,22,0.05,6,Fog-Snow,328
2013-1-25,16,9,1,9,5,-3,92,76,59,30.53,30.24,30.07,10,8,2,10,4,13,0.01,7,Snow,131
2013-1-26,25,17,8,14,10,5,84,70,55,30.43,30.26,30.12,10,10,7,9,4,14,T,6,Snow,225
2013-1-27,28,21,14,17,15,12,92,71,50,30.58,30.48,30.35,10,8,3,12,4,14,T,5,Snow,197
2013-1-28,43,34,25,43,34,16,100,82,63,30.31,29.99,29.83,10,3,0,25,11,33,0.46,8,Fog-Rain-Snow,207
2013-1-29,58,47,35,53,41,33,100,93,85,30.04,29.91,29.72,10,4,1,21,8,24,0.73,8,Rain,177
2013-1-30,66,57,48,54,50,44,93,77,60,29.66,29.30,29.05,10,8,2,36,19,46,0.46,8,Rain,212
2013-1-31,50,36,22,37,19,9,96,71,46,29.74,29.42,29.11,10,6,0,40,26,59,0.10,8,Rain-Snow,254